sensor_id;sensor_type;location;lat;lon;timestamp;pressure;altitude;pressure_sealevel;temperature;humidity
36222;BME280;22266;52.340;4.962;2022-10-14T00:01:16;101520.59;;;11.14;79.54
36222;BME280;22266;52.340;4.962;2022-10-14T00:03:43;101530.72;;;11.12;79.37
36222;BME280;22266;52.340;4.962;2022-10-14T00:06:13;101523.81;;;11.09;79.44
36222;BME280;22266;52.340;4.962;2022-10-14T00:08:41;101532.91;;;11.08;79.87
36222;BME280;22266;52.340;4.962;2022-10-14T00:11:31;101533.47;;;11.04;79.78
36222;BME280;22266;52.340;4.962;2022-10-14T00:14:01;101528.28;;;11.02;80.02
36222;BME280;22266;52.340;4.962;2022-10-14T00:16:34;101531.31;;;10.99;79.92
36222;BME280;22266;52.340;4.962;2022-10-14T00:19:03;101523.41;;;10.98;80.21
36222;BME280;22266;52.340;4.962;2022-10-14T00:21:32;101514.66;;;10.96;80.05
36222;BME280;22266;52.340;4.962;2022-10-14T00:24:07;101508.94;;;10.99;80.38
36222;BME280;22266;52.340;4.962;2022-10-14T00:26:38;101506.41;;;10.97;80.03
36222;BME280;22266;52.340;4.962;2022-10-14T00:29:12;101511.50;;;10.92;79.84
36222;BME280;22266;52.340;4.962;2022-10-14T00:31:39;101516.59;;;10.87;80.24
36222;BME280;22266;52.340;4.962;2022-10-14T00:34:10;101518.63;;;10.85;79.79
36222;BME280;22266;52.340;4.962;2022-10-14T00:36:38;101519.44;;;10.85;80.01
36222;BME280;22266;52.340;4.962;2022-10-14T00:39:10;101512.03;;;10.87;80.04
36222;BME280;22266;52.340;4.962;2022-10-14T00:41:43;101512.03;;;10.87;80.10
36222;BME280;22266;52.340;4.962;2022-10-14T00:46:49;101501.13;;;10.81;80.11
36222;BME280;22266;52.340;4.962;2022-10-14T00:49:39;101494.91;;;10.80;80.29
36222;BME280;22266;52.340;4.962;2022-10-14T00:52:13;101489.19;;;10.83;80.20
36222;BME280;22266;52.340;4.962;2022-10-14T00:54:43;101485.47;;;10.84;80.23
36222;BME280;22266;52.340;4.962;2022-10-14T00:57:10;101474.69;;;10.84;80.23
36222;BME280;22266;52.340;4.962;2022-10-14T00:59:39;101476.19;;;10.87;79.88
36222;BME280;22266;52.340;4.962;2022-10-14T01:02:06;101467.34;;;10.78;80.26
36222;BME280;22266;52.340;4.962;2022-10-14T01:04:34;101458.44;;;10.78;80.35
36222;BME280;22266;52.340;4.962;2022-10-14T01:07:32;101451.00;;;10.80;80.18
36222;BME280;22266;52.340;4.962;2022-10-14T01:10:25;101443.59;;;10.82;80.60
36222;BME280;22266;52.340;4.962;2022-10-14T01:16:11;101440.50;;;10.85;80.29
36222;BME280;22266;52.340;4.962;2022-10-14T01:21:36;101439.50;;;10.86;80.46
36222;BME280;22266;52.340;4.962;2022-10-14T01:24:31;101448.44;;;10.86;80.32
36222;BME280;22266;52.340;4.962;2022-10-14T01:27:26;101458.81;;;10.89;80.59
36222;BME280;22266;52.340;4.962;2022-10-14T01:30:17;101456.97;;;10.90;80.50
36222;BME280;22266;52.340;4.962;2022-10-14T01:35:54;101460.13;;;10.94;80.67
36222;BME280;22266;52.340;4.962;2022-10-14T01:39:11;101462.19;;;10.92;80.73
36222;BME280;22266;52.340;4.962;2022-10-14T01:41:48;101471.28;;;10.91;80.41
36222;BME280;22266;52.340;4.962;2022-10-14T01:44:19;101468.75;;;10.89;80.59
36222;BME280;22266;52.340;4.962;2022-10-14T01:46:52;101461.50;;;10.89;80.55
36222;BME280;22266;52.340;4.962;2022-10-14T01:49:30;101464.03;;;10.91;80.90
36222;BME280;22266;52.340;4.962;2022-10-14T01:52:11;101463.00;;;10.92;80.69
36222;BME280;22266;52.340;4.962;2022-10-14T01:54:40;101473.25;;;10.97;80.71
36222;BME280;22266;52.340;4.962;2022-10-14T01:57:20;101466.81;;;10.98;80.85
36222;BME280;22266;52.340;4.962;2022-10-14T01:59:49;101458.22;;;11.02;80.47
36222;BME280;22266;52.340;4.962;2022-10-14T02:02:18;101452.84;;;11.02;80.85
36222;BME280;22266;52.340;4.962;2022-10-14T02:04:45;101450.16;;;11.02;80.54
36222;BME280;22266;52.340;4.962;2022-10-14T02:07:20;101451.81;;;11.03;80.66
36222;BME280;22266;52.340;4.962;2022-10-14T02:10:08;101447.06;;;11.05;80.46
36222;BME280;22266;52.340;4.962;2022-10-14T02:20:54;101417.34;;;10.99;80.64
36222;BME280;22266;52.340;4.962;2022-10-14T02:23:27;101422.34;;;11.02;80.29
36222;BME280;22266;52.340;4.962;2022-10-14T02:25:59;101418.81;;;11.01;80.43
36222;BME280;22266;52.340;4.962;2022-10-14T02:28:28;101410.56;;;11.03;80.42
36222;BME280;22266;52.340;4.962;2022-10-14T02:30:59;101410.38;;;11.04;80.54
36222;BME280;22266;52.340;4.962;2022-10-14T02:33:33;101407.88;;;11.03;80.33
36222;BME280;22266;52.340;4.962;2022-10-14T02:36:06;101410.72;;;11.01;80.20
36222;BME280;22266;52.340;4.962;2022-10-14T02:38:35;101412.78;;;10.99;80.04
36222;BME280;22266;52.340;4.962;2022-10-14T02:41:04;101413.16;;;10.96;80.39
36222;BME280;22266;52.340;4.962;2022-10-14T02:43:34;101414.16;;;10.95;80.22
36222;BME280;22266;52.340;4.962;2022-10-14T02:46:04;101408.59;;;10.97;80.38
36222;BME280;22266;52.340;4.962;2022-10-14T02:48:31;101402.38;;;10.96;80.41
36222;BME280;22266;52.340;4.962;2022-10-14T02:50:58;101393.25;;;10.97;80.54
36222;BME280;22266;52.340;4.962;2022-10-14T02:53:24;101395.13;;;10.97;80.71
36222;BME280;22266;52.340;4.962;2022-10-14T02:55:51;101389.94;;;10.95;80.41
36222;BME280;22266;52.340;4.962;2022-10-14T02:58:17;101394.28;;;10.96;80.47
36222;BME280;22266;52.340;4.962;2022-10-14T03:00:44;101394.09;;;10.98;80.54
36222;BME280;22266;52.340;4.962;2022-10-14T03:03:11;101386.00;;;10.98;80.56
36222;BME280;22266;52.340;4.962;2022-10-14T03:05:38;101388.53;;;10.99;80.66
36222;BME280;22266;52.340;4.962;2022-10-14T03:08:10;101386.47;;;11.01;80.77
36222;BME280;22266;52.340;4.962;2022-10-14T03:10:38;101383.44;;;11.04;80.32
36222;BME280;22266;52.340;4.962;2022-10-14T03:13:07;101378.88;;;11.05;80.42
36222;BME280;22266;52.340;4.962;2022-10-14T03:15:39;101384.25;;;11.05;80.22
36222;BME280;22266;52.340;4.962;2022-10-14T03:18:08;101377.84;;;11.06;80.68
36222;BME280;22266;52.340;4.962;2022-10-14T03:20:42;101377.69;;;11.07;80.60
36222;BME280;22266;52.340;4.962;2022-10-14T03:23:11;101371.47;;;11.07;80.62
36222;BME280;22266;52.340;4.962;2022-10-14T03:25:39;101373.97;;;11.08;80.45
36222;BME280;22266;52.340;4.962;2022-10-14T03:28:10;101369.25;;;11.10;80.63
36222;BME280;22266;52.340;4.962;2022-10-14T03:30:46;101367.75;;;11.08;80.49
36222;BME280;22266;52.340;4.962;2022-10-14T03:33:21;101357.78;;;11.08;80.67
36222;BME280;22266;52.340;4.962;2022-10-14T03:36:05;101354.91;;;11.10;80.72
36222;BME280;22266;52.340;4.962;2022-10-14T03:38:48;101345.81;;;11.11;80.55
36222;BME280;22266;52.340;4.962;2022-10-14T03:41:24;101343.13;;;11.11;80.75
36222;BME280;22266;52.340;4.962;2022-10-14T03:43:51;101345.00;;;11.10;80.54
36222;BME280;22266;52.340;4.962;2022-10-14T03:46:18;101336.91;;;11.10;80.55
36222;BME280;22266;52.340;4.962;2022-10-14T03:48:48;101335.03;;;11.11;80.86
36222;BME280;22266;52.340;4.962;2022-10-14T03:51:15;101323.03;;;11.13;80.91
36222;BME280;22266;52.340;4.962;2022-10-14T03:53:42;101327.22;;;11.16;80.85
36222;BME280;22266;52.340;4.962;2022-10-14T03:56:11;101325.94;;;11.12;80.90
36222;BME280;22266;52.340;4.962;2022-10-14T03:58:37;101317.84;;;11.12;81.16
36222;BME280;22266;52.340;4.962;2022-10-14T04:01:10;101327.44;;;11.14;81.11
36222;BME280;22266;52.340;4.962;2022-10-14T04:03:56;101319.81;;;11.18;81.24
36222;BME280;22266;52.340;4.962;2022-10-14T04:06:26;101323.13;;;11.20;81.27
36222;BME280;22266;52.340;4.962;2022-10-14T04:08:56;101317.75;;;11.20;81.03
36222;BME280;22266;52.340;4.962;2022-10-14T04:11:30;101315.72;;;11.22;81.29
36222;BME280;22266;52.340;4.962;2022-10-14T04:14:02;101312.00;;;11.23;81.44
36222;BME280;22266;52.340;4.962;2022-10-14T04:16:31;101310.97;;;11.24;81.63
36222;BME280;22266;52.340;4.962;2022-10-14T04:19:15;101314.50;;;11.25;81.38
36222;BME280;22266;52.340;4.962;2022-10-14T04:21:42;101307.91;;;11.27;81.80
36222;BME280;22266;52.340;4.962;2022-10-14T04:24:09;101307.69;;;11.29;81.46
36222;BME280;22266;52.340;4.962;2022-10-14T04:26:49;101303.81;;;11.31;81.79
36222;BME280;22266;52.340;4.962;2022-10-14T04:29:23;101302.78;;;11.32;81.63
36222;BME280;22266;52.340;4.962;2022-10-14T04:31:56;101314.38;;;11.33;81.46
36222;BME280;22266;52.340;4.962;2022-10-14T04:34:22;101311.91;;;11.31;81.52
36222;BME280;22266;52.340;4.962;2022-10-14T04:36:53;101305.47;;;11.32;81.52
36222;BME280;22266;52.340;4.962;2022-10-14T04:39:37;101304.84;;;11.30;81.56
36222;BME280;22266;52.340;4.962;2022-10-14T04:42:05;101302.16;;;11.30;81.88
36222;BME280;22266;52.340;4.962;2022-10-14T04:44:32;101297.97;;;11.28;81.45
36222;BME280;22266;52.340;4.962;2022-10-14T04:47:00;101290.91;;;11.27;81.67
36222;BME280;22266;52.340;4.962;2022-10-14T04:49:27;101291.72;;;11.27;81.96
36222;BME280;22266;52.340;4.962;2022-10-14T04:52:12;101280.75;;;11.29;81.88
36222;BME280;22266;52.340;4.962;2022-10-14T04:54:49;101279.72;;;11.30;82.40
36222;BME280;22266;52.340;4.962;2022-10-14T04:57:22;101271.63;;;11.30;82.12
36222;BME280;22266;52.340;4.962;2022-10-14T04:59:48;101271.00;;;11.28;81.99
36222;BME280;22266;52.340;4.962;2022-10-14T05:02:40;101266.44;;;11.28;82.03
36222;BME280;22266;52.340;4.962;2022-10-14T05:05:08;101260.84;;;11.30;82.20
36222;BME280;22266;52.340;4.962;2022-10-14T05:07:37;101259.66;;;11.32;82.26
36222;BME280;22266;52.340;4.962;2022-10-14T05:10:33;101252.41;;;11.33;81.97
36222;BME280;22266;52.340;4.962;2022-10-14T05:13:02;101250.53;;;11.33;81.90
36222;BME280;22266;52.340;4.962;2022-10-14T05:15:34;101244.97;;;11.35;82.13
36222;BME280;22266;52.340;4.962;2022-10-14T05:18:09;101246.63;;;11.36;81.99
36222;BME280;22266;52.340;4.962;2022-10-14T05:20:47;101242.28;;;11.35;81.78
36222;BME280;22266;52.340;4.962;2022-10-14T05:23:16;101239.38;;;11.36;82.03
36222;BME280;22266;52.340;4.962;2022-10-14T05:25:43;101235.03;;;11.35;82.10
36222;BME280;22266;52.340;4.962;2022-10-14T05:28:10;101233.78;;;11.38;82.42
36222;BME280;22266;52.340;4.962;2022-10-14T05:30:40;101228.41;;;11.38;81.86
36222;BME280;22266;52.340;4.962;2022-10-14T05:33:09;101225.53;;;11.39;82.54
36222;BME280;22266;52.340;4.962;2022-10-14T05:35:37;101227.19;;;11.41;82.37
36222;BME280;22266;52.340;4.962;2022-10-14T05:38:25;101230.56;;;11.43;82.29
36222;BME280;22266;52.340;4.962;2022-10-14T05:40:56;101224.97;;;11.44;82.26
36222;BME280;22266;52.340;4.962;2022-10-14T05:43:23;101222.25;;;11.44;82.23
36222;BME280;22266;52.340;4.962;2022-10-14T05:45:57;101214.81;;;11.46;82.23
36222;BME280;22266;52.340;4.962;2022-10-14T05:48:27;101207.75;;;11.45;82.33
36222;BME280;22266;52.340;4.962;2022-10-14T05:50:54;101213.97;;;11.46;82.45
36222;BME280;22266;52.340;4.962;2022-10-14T05:53:23;101211.09;;;11.47;82.38
36222;BME280;22266;52.340;4.962;2022-10-14T05:56:00;101211.75;;;11.49;82.59
36222;BME280;22266;52.340;4.962;2022-10-14T05:58:26;101210.06;;;11.48;82.00
36222;BME280;22266;52.340;4.962;2022-10-14T06:00:53;101208.22;;;11.49;82.35
36222;BME280;22266;52.340;4.962;2022-10-14T06:03:20;101208.22;;;11.49;82.49
36222;BME280;22266;52.340;4.962;2022-10-14T06:05:48;101204.03;;;11.46;82.42
36222;BME280;22266;52.340;4.962;2022-10-14T06:08:15;101204.69;;;11.48;82.62
36222;BME280;22266;52.340;4.962;2022-10-14T06:10:43;101200.78;;;11.51;82.90
36222;BME280;22266;52.340;4.962;2022-10-14T06:13:09;101203.91;;;11.54;82.46
36222;BME280;22266;52.340;4.962;2022-10-14T06:15:37;101201.88;;;11.56;82.68
36222;BME280;22266;52.340;4.962;2022-10-14T06:18:04;101197.31;;;11.57;82.55
36222;BME280;22266;52.340;4.962;2022-10-14T06:20:32;101195.25;;;11.59;82.85
36222;BME280;22266;52.340;4.962;2022-10-14T06:22:59;101196.94;;;11.60;82.48
36222;BME280;22266;52.340;4.962;2022-10-14T06:25:25;101191.53;;;11.60;82.29
36222;BME280;22266;52.340;4.962;2022-10-14T06:27:52;101192.81;;;11.64;82.68
36222;BME280;22266;52.340;4.962;2022-10-14T06:30:18;101192.81;;;11.64;82.48
36222;BME280;22266;52.340;4.962;2022-10-14T06:32:44;101196.13;;;11.66;82.65
36222;BME280;22266;52.340;4.962;2022-10-14T06:35:11;101198.00;;;11.66;82.38
36222;BME280;22266;52.340;4.962;2022-10-14T06:37:38;101186.00;;;11.68;82.53
36222;BME280;22266;52.340;4.962;2022-10-14T06:40:05;101178.75;;;11.69;82.24
36222;BME280;22266;52.340;4.962;2022-10-14T06:42:32;101183.94;;;11.70;82.53
36222;BME280;22266;52.340;4.962;2022-10-14T06:44:59;101178.53;;;11.70;82.45
36222;BME280;22266;52.340;4.962;2022-10-14T06:47:25;101169.44;;;11.71;82.53
36222;BME280;22266;52.340;4.962;2022-10-14T06:49:51;101166.34;;;11.74;82.38
36222;BME280;22266;52.340;4.962;2022-10-14T06:52:18;101167.00;;;11.76;82.31
36222;BME280;22266;52.340;4.962;2022-10-14T06:54:44;101161.59;;;11.76;82.50
36222;BME280;22266;52.340;4.962;2022-10-14T06:57:13;101158.53;;;11.79;82.50
36222;BME280;22266;52.340;4.962;2022-10-14T06:59:40;101152.09;;;11.80;82.37
36222;BME280;22266;52.340;4.962;2022-10-14T07:02:08;101152.09;;;11.80;82.38
36222;BME280;22266;52.340;4.962;2022-10-14T07:04:34;101151.06;;;11.81;82.48
36222;BME280;22266;52.340;4.962;2022-10-14T07:07:00;101144.00;;;11.80;82.66
36222;BME280;22266;52.340;4.962;2022-10-14T07:09:28;101144.63;;;11.82;82.75
36222;BME280;22266;52.340;4.962;2022-10-14T07:11:54;101145.53;;;11.83;82.81
36222;BME280;22266;52.340;4.962;2022-10-14T07:14:21;101136.38;;;11.84;82.93
36222;BME280;22266;52.340;4.962;2022-10-14T07:16:47;101140.75;;;11.85;83.13
36222;BME280;22266;52.340;4.962;2022-10-14T07:19:13;101136.00;;;11.87;83.30
36222;BME280;22266;52.340;4.962;2022-10-14T07:21:40;101143.50;;;11.92;83.28
36222;BME280;22266;52.340;4.962;2022-10-14T07:24:08;101135.41;;;11.92;83.19
36222;BME280;22266;52.340;4.962;2022-10-14T07:26:34;101127.78;;;11.95;83.61
36222;BME280;22266;52.340;4.962;2022-10-14T07:29:03;101134.63;;;11.98;83.16
36222;BME280;22266;52.340;4.962;2022-10-14T07:31:30;101142.72;;;11.98;83.05
36222;BME280;22266;52.340;4.962;2022-10-14T07:33:56;101140.00;;;11.98;83.19
36222;BME280;22266;52.340;4.962;2022-10-14T07:36:23;101136.28;;;11.99;83.21
36222;BME280;22266;52.340;4.962;2022-10-14T07:38:49;101137.13;;;11.99;83.20
36222;BME280;22266;52.340;4.962;2022-10-14T07:41:19;101142.13;;;12.02;83.35
36222;BME280;22266;52.340;4.962;2022-10-14T07:43:48;101140.25;;;12.03;83.36
36222;BME280;22266;52.340;4.962;2022-10-14T07:46:17;101144.63;;;12.04;83.60
36222;BME280;22266;52.340;4.962;2022-10-14T07:48:58;101141.72;;;12.05;83.47
36222;BME280;22266;52.340;4.962;2022-10-14T07:51:26;101138.81;;;12.07;83.68
36222;BME280;22266;52.340;4.962;2022-10-14T07:53:54;101145.72;;;12.09;83.81
36222;BME280;22266;52.340;4.962;2022-10-14T07:56:21;101135.75;;;12.10;83.88
36222;BME280;22266;52.340;4.962;2022-10-14T07:58:48;101139.72;;;12.14;83.85
36222;BME280;22266;52.340;4.962;2022-10-14T08:01:15;101133.09;;;12.17;83.94
36222;BME280;22266;52.340;4.962;2022-10-14T08:03:45;101135.41;;;12.20;83.77
36222;BME280;22266;52.340;4.962;2022-10-14T08:06:12;101134.38;;;12.21;83.54
36222;BME280;22266;52.340;4.962;2022-10-14T08:08:40;101130.44;;;12.23;83.90
36222;BME280;22266;52.340;4.962;2022-10-14T08:14:07;101129.66;;;12.29;83.75
36222;BME280;22266;52.340;4.962;2022-10-14T08:16:34;101126.75;;;12.31;83.93
36222;BME280;22266;52.340;4.962;2022-10-14T08:19:04;101131.75;;;12.34;83.96
36222;BME280;22266;52.340;4.962;2022-10-14T08:21:39;101125.31;;;12.35;84.06
36222;BME280;22266;52.340;4.962;2022-10-14T08:24:06;101135.94;;;12.36;84.17
36222;BME280;22266;52.340;4.962;2022-10-14T08:26:35;101122.00;;;12.40;84.18
36222;BME280;22266;52.340;4.962;2022-10-14T08:29:05;101126.84;;;12.44;84.07
36222;BME280;22266;52.340;4.962;2022-10-14T08:31:32;101127.44;;;12.46;84.04
36222;BME280;22266;52.340;4.962;2022-10-14T08:33:59;101120.84;;;12.49;84.03
36222;BME280;22266;52.340;4.962;2022-10-14T08:36:25;101123.31;;;12.50;84.01
36222;BME280;22266;52.340;4.962;2022-10-14T08:38:52;101130.63;;;12.56;84.04
36222;BME280;22266;52.340;4.962;2022-10-14T08:44:13;101127.34;;;12.61;83.85
36222;BME280;22266;52.340;4.962;2022-10-14T08:46:49;101120.69;;;12.63;83.96
36222;BME280;22266;52.340;4.962;2022-10-14T08:50:16;101120.09;;;12.68;84.10
36222;BME280;22266;52.340;4.962;2022-10-14T08:55:34;101113.66;;;12.76;84.24
36222;BME280;22266;52.340;4.962;2022-10-14T08:58:11;101117.22;;;12.76;84.05
36222;BME280;22266;52.340;4.962;2022-10-14T09:00:40;101115.78;;;12.80;84.24
36222;BME280;22266;52.340;4.962;2022-10-14T09:03:19;101104.38;;;12.85;84.38
36222;BME280;22266;52.340;4.962;2022-10-14T09:05:56;101111.22;;;12.87;84.50
36222;BME280;22266;52.340;4.962;2022-10-14T09:08:29;101114.75;;;12.88;84.60
36222;BME280;22266;52.340;4.962;2022-10-14T09:10:58;101106.06;;;12.93;84.81
36222;BME280;22266;52.340;4.962;2022-10-14T09:13:33;101096.69;;;12.95;84.72
36222;BME280;22266;52.340;4.962;2022-10-14T09:16:05;101097.94;;;12.99;84.89
36222;BME280;22266;52.340;4.962;2022-10-14T09:18:42;101100.25;;;13.02;84.70
36222;BME280;22266;52.340;4.962;2022-10-14T09:21:32;101096.50;;;13.03;84.90
36222;BME280;22266;52.340;4.962;2022-10-14T09:24:26;101088.22;;;13.05;84.99
36222;BME280;22266;52.340;4.962;2022-10-14T09:26:56;101087.59;;;13.09;85.05
36222;BME280;22266;52.340;4.962;2022-10-14T09:29:31;101084.88;;;13.16;85.30
36222;BME280;22266;52.340;4.962;2022-10-14T09:32:04;101084.88;;;13.16;85.01
36222;BME280;22266;52.340;4.962;2022-10-14T09:34:40;101087.19;;;13.19;85.29
36222;BME280;22266;52.340;4.962;2022-10-14T09:39:53;101083.50;;;13.27;85.41
36222;BME280;22266;52.340;4.962;2022-10-14T09:45:16;101081.00;;;13.32;85.28
36222;BME280;22266;52.340;4.962;2022-10-14T09:47:48;101077.28;;;13.33;85.38
36222;BME280;22266;52.340;4.962;2022-10-14T09:50:38;101071.25;;;13.38;85.27
36222;BME280;22266;52.340;4.962;2022-10-14T09:53:14;101073.94;;;13.38;85.40
36222;BME280;22266;52.340;4.962;2022-10-14T09:55:47;101074.38;;;13.41;85.49
36222;BME280;22266;52.340;4.962;2022-10-14T09:58:17;101072.28;;;13.43;85.66
36222;BME280;22266;52.340;4.962;2022-10-14T10:00:44;101066.88;;;13.43;85.62
36222;BME280;22266;52.340;4.962;2022-10-14T10:03:29;101062.50;;;13.42;85.72
36222;BME280;22266;52.340;4.962;2022-10-14T10:06:09;101067.50;;;13.45;85.94
36222;BME280;22266;52.340;4.962;2022-10-14T10:08:39;101061.66;;;13.48;86.13
36222;BME280;22266;52.340;4.962;2022-10-14T10:11:08;101062.28;;;13.50;86.00
36222;BME280;22266;52.340;4.962;2022-10-14T10:18:44;101052.69;;;13.61;86.13
36222;BME280;22266;52.340;4.962;2022-10-14T10:21:17;101059.34;;;13.65;86.10
36222;BME280;22266;52.340;4.962;2022-10-14T10:23:54;101053.13;;;13.65;85.92
36222;BME280;22266;52.340;4.962;2022-10-14T10:26:32;101054.81;;;13.66;86.10
36222;BME280;22266;52.340;4.962;2022-10-14T10:29:01;101042.53;;;13.70;86.27
36222;BME280;22266;52.340;4.962;2022-10-14T10:31:42;101038.97;;;13.69;86.04
36222;BME280;22266;52.340;4.962;2022-10-14T10:34:56;101042.09;;;13.66;86.18
36222;BME280;22266;52.340;4.962;2022-10-14T10:37:24;101047.94;;;13.70;86.41
36222;BME280;22266;52.340;4.962;2022-10-14T10:51:36;101030.84;;;13.76;86.11
36222;BME280;22266;52.340;4.962;2022-10-14T10:54:21;101028.38;;;13.74;86.25
36222;BME280;22266;52.340;4.962;2022-10-14T10:56:56;101026.25;;;13.76;86.28
36222;BME280;22266;52.340;4.962;2022-10-14T11:05:05;101022.53;;;13.77;86.60
36222;BME280;22266;52.340;4.962;2022-10-14T11:10:32;101008.16;;;13.83;86.66
36222;BME280;22266;52.340;4.962;2022-10-14T11:13:39;101007.72;;;13.87;86.46
36222;BME280;22266;52.340;4.962;2022-10-14T11:16:18;101001.03;;;13.89;86.78
36222;BME280;22266;52.340;4.962;2022-10-14T11:18:54;101001.91;;;13.90;86.53
36222;BME280;22266;52.340;4.962;2022-10-14T11:21:41;101001.91;;;13.90;86.61
36222;BME280;22266;52.340;4.962;2022-10-14T11:24:21;100992.50;;;13.92;86.35
36222;BME280;22266;52.340;4.962;2022-10-14T11:27:00;100987.94;;;13.93;86.54
36222;BME280;22266;52.340;4.962;2022-10-14T11:32:44;100980.44;;;13.88;86.70
36222;BME280;22266;52.340;4.962;2022-10-14T11:35:31;100981.91;;;13.91;87.07
36222;BME280;22266;52.340;4.962;2022-10-14T11:46:32;100967.09;;;14.00;87.21
36222;BME280;22266;52.340;4.962;2022-10-14T11:49:25;100963.78;;;13.98;87.00
36222;BME280;22266;52.340;4.962;2022-10-14T11:52:03;100955.22;;;14.01;87.30
36222;BME280;22266;52.340;4.962;2022-10-14T11:57:33;100947.31;;;14.06;86.92
36222;BME280;22266;52.340;4.962;2022-10-14T12:00:06;100951.66;;;14.07;86.78
36222;BME280;22266;52.340;4.962;2022-10-14T12:02:48;100945.44;;;14.06;87.02
36222;BME280;22266;52.340;4.962;2022-10-14T12:10:52;100939.13;;;14.13;87.04
36222;BME280;22266;52.340;4.962;2022-10-14T12:13:29;100926.88;;;14.10;87.12
36222;BME280;22266;52.340;4.962;2022-10-14T12:15:57;100922.91;;;14.13;87.01
36222;BME280;22266;52.340;4.962;2022-10-14T12:18:28;100918.09;;;14.15;87.24
36222;BME280;22266;52.340;4.962;2022-10-14T12:21:21;100917.47;;;14.13;86.82
36222;BME280;22266;52.340;4.962;2022-10-14T12:23:54;100925.41;;;14.14;87.24
36222;BME280;22266;52.340;4.962;2022-10-14T12:28:51;100915.41;;;14.15;87.48
36222;BME280;22266;52.340;4.962;2022-10-14T12:31:43;100918.06;;;14.21;87.71
36222;BME280;22266;52.340;4.962;2022-10-14T12:36:43;100909.41;;;14.44;87.88
36222;BME280;22266;52.340;4.962;2022-10-14T12:41:51;100908.03;;;14.67;87.58
36222;BME280;22266;52.340;4.962;2022-10-14T12:44:21;100921.94;;;14.70;87.41
36222;BME280;22266;52.340;4.962;2022-10-14T12:46:50;100913.63;;;14.72;87.17
36222;BME280;22266;52.340;4.962;2022-10-14T12:49:34;100912.31;;;14.74;87.28
36222;BME280;22266;52.340;4.962;2022-10-14T12:52:04;100905.66;;;14.77;87.32
36222;BME280;22266;52.340;4.962;2022-10-14T12:54:33;100908.59;;;14.75;86.84
36222;BME280;22266;52.340;4.962;2022-10-14T12:57:05;100908.91;;;14.61;86.62
36222;BME280;22266;52.340;4.962;2022-10-14T12:59:48;100920.38;;;14.63;86.97
36222;BME280;22266;52.340;4.962;2022-10-14T13:05:00;100905.75;;;14.64;86.94
36222;BME280;22266;52.340;4.962;2022-10-14T13:07:32;100908.03;;;14.67;86.57
36222;BME280;22266;52.340;4.962;2022-10-14T13:10:46;100901.16;;;14.64;86.45
36222;BME280;22266;52.340;4.962;2022-10-14T13:24:20;100904.47;;;14.66;86.24
36222;BME280;22266;52.340;4.962;2022-10-14T13:32:26;100908.03;;;14.67;86.01
36222;BME280;22266;52.340;4.962;2022-10-14T13:35:11;100908.88;;;14.67;85.87
36222;BME280;22266;52.340;4.962;2022-10-14T13:37:43;100900.50;;;14.69;85.94
36222;BME280;22266;52.340;4.962;2022-10-14T13:42:54;100902.81;;;14.65;85.71
36222;BME280;22266;52.340;4.962;2022-10-14T13:45:29;100904.31;;;14.61;85.60
36222;BME280;22266;52.340;4.962;2022-10-14T13:47:57;100900.78;;;14.61;85.75
36222;BME280;22266;52.340;4.962;2022-10-14T13:50:31;100903.25;;;14.62;85.83
36222;BME280;22266;52.340;4.962;2022-10-14T13:53:03;100894.94;;;14.64;85.87
36222;BME280;22266;52.340;4.962;2022-10-14T13:55:29;100903.25;;;14.62;85.75
36222;BME280;22266;52.340;4.962;2022-10-14T13:58:11;100898.28;;;14.59;85.88
36222;BME280;22266;52.340;4.962;2022-10-14T14:03:33;100897.00;;;14.62;85.62
36222;BME280;22266;52.340;4.962;2022-10-14T14:06:08;100893.03;;;14.64;85.29
36222;BME280;22266;52.340;4.962;2022-10-14T14:08:47;100889.28;;;14.65;85.28
36222;BME280;22266;52.340;4.962;2022-10-14T14:11:23;100877.38;;;14.66;85.41
36222;BME280;22266;52.340;4.962;2022-10-14T14:13:59;100883.19;;;14.70;84.94
36222;BME280;22266;52.340;4.962;2022-10-14T14:16:59;100883.81;;;14.72;84.68
36222;BME280;22266;52.340;4.962;2022-10-14T14:19:34;100870.66;;;14.75;84.59
36222;BME280;22266;52.340;4.962;2022-10-14T14:25:11;100875.63;;;14.78;84.52
36222;BME280;22266;52.340;4.962;2022-10-14T14:28:02;100874.59;;;14.79;83.90
36222;BME280;22266;52.340;4.962;2022-10-14T14:30:33;100876.63;;;14.84;83.75
36222;BME280;22266;52.340;4.962;2022-10-14T14:33:05;100874.31;;;14.88;84.02
36222;BME280;22266;52.340;4.962;2022-10-14T14:35:32;100880.31;;;14.90;83.67
36222;BME280;22266;52.340;4.962;2022-10-14T14:37:58;100875.97;;;14.89;83.37
36222;BME280;22266;52.340;4.962;2022-10-14T14:40:29;100874.91;;;14.90;83.34
36222;BME280;22266;52.340;4.962;2022-10-14T14:43:01;100875.34;;;14.87;83.55
36222;BME280;22266;52.340;4.962;2022-10-14T14:45:31;100871.81;;;14.86;83.41
36222;BME280;22266;52.340;4.962;2022-10-14T14:48:05;100877.44;;;14.84;83.20
36222;BME280;22266;52.340;4.962;2022-10-14T14:50:40;100876.91;;;14.76;83.35
36222;BME280;22266;52.340;4.962;2022-10-14T14:53:26;100877.09;;;14.74;83.39
36222;BME280;22266;52.340;4.962;2022-10-14T15:00:52;100874.19;;;14.76;83.44
36222;BME280;22266;52.340;4.962;2022-10-14T15:03:26;100871.06;;;14.79;83.37
36222;BME280;22266;52.340;4.962;2022-10-14T15:05:59;100866.44;;;14.79;82.79
36222;BME280;22266;52.340;4.962;2022-10-14T15:08:30;100874.97;;;14.83;82.88
36222;BME280;22266;52.340;4.962;2022-10-14T15:10:58;100867.28;;;14.80;82.57
36222;BME280;22266;52.340;4.962;2022-10-14T15:13:28;100875.41;;;14.80;82.59
36222;BME280;22266;52.340;4.962;2022-10-14T15:15:55;100869.31;;;14.84;82.54
36222;BME280;22266;52.340;4.962;2022-10-14T15:18:24;100863.91;;;14.84;82.54
36222;BME280;22266;52.340;4.962;2022-10-14T15:26:03;100837.78;;;14.65;82.08